Portada
METAR-TAF:

METAR-TAF

Aeroports :

Lihue, Hawaii, Estats Units d'Amèrica

latitud: 21-59-02N, longitud: 159-20-28W, altitud: 45 m

Observació

L'informe es va fer fa 52 minuts, a les 16:53 UTC
Vent 8 kt del Nord-Est
Temperatura 24°C
Humitat 83%
Pressió 1018 hPa
Visibilitat: 16.1 km
Escasses núvols a una alçada de 1800 ft
Cel ennuvolat a una alçada de 4800 ft

METAR: PHLI 261653Z 05008KT 10SM FEW018 BKN048 24/21 A3007 RMK AO2 SLP178 T02390206

Hora: 07:45 (17:45 UTC)

Pronòstic

L'informe es va fer fa 3 minuts, a les 17:42 UTC
Pronòstic vàlid del 26 a les 18 UTC al 27 a les 18 UTC
Vent 12 kt del Nord-Est
Visibilitat: 10 km
Núvols disperses a una alçada de 2000 ft
Cel ennuvolat a una alçada de 4000 ft
xàfecs en les proximitats

TAF: PHLI 261742Z 2618/2718 05012KT P6SM VCSH SCT020 BKN040

Observacions i pronòstics meteorològics de més de 4000 aeroports (METAR i TAF).

Les estacions disponibles són els punts grocs i vermells al mapa.

Posi el ratolí al punt desitjat per veure el nom de l'estació.

Feu clic per veure les observacions i els pronòstics meteorològics.

Per canviar el mapa: feu clic els botons verds amb una creu de color negre per apropar; al botó verd amb un guió per allunyar la imatge; o en les fletxes verdes per a mapes adjacents.


METAR-TAF: